createdAt,value
2019-02-24T00:02:23.430Z,11.60
2019-02-24T00:07:28.904Z,12.40
2019-02-24T00:12:34.655Z,12.30
2019-02-24T00:17:40.117Z,11.33
2019-02-24T00:22:45.903Z,11.83
2019-02-24T00:27:51.367Z,12.20
2019-02-24T00:32:56.947Z,10.80
2019-02-24T00:38:02.407Z,11.40
2019-02-24T00:43:07.986Z,12.13
2019-02-24T00:48:13.452Z,12.07
2019-02-24T00:53:18.911Z,13.23
2019-02-24T00:58:24.394Z,12.53
2019-02-24T01:03:29.878Z,12.03
2019-02-24T01:08:35.700Z,12.30
2019-02-24T01:13:41.158Z,13.27
2019-02-24T01:18:46.622Z,13.57
2019-02-24T01:23:52.102Z,13.87
2019-02-24T01:28:57.629Z,12.47
2019-02-24T01:34:03.505Z,12.20
2019-02-24T01:39:08.966Z,12.83
2019-02-24T01:44:14.442Z,14.37
2019-02-24T01:49:19.889Z,14.17
2019-02-24T01:54:25.367Z,12.03
2019-02-24T01:59:31.330Z,13.17
2019-02-24T02:04:37.169Z,12.00
2019-02-24T02:09:42.661Z,10.57
2019-02-24T02:14:48.186Z,12.03
2019-02-24T02:19:53.649Z,11.37
2019-02-24T02:24:59.123Z,11.30
2019-02-24T02:30:06.079Z,13.03
2019-02-24T02:35:11.607Z,13.30
2019-02-24T02:40:17.413Z,11.27
2019-02-24T02:45:22.864Z,11.07
2019-02-24T02:50:28.328Z,12.47
2019-02-24T02:55:34.183Z,12.20
2019-02-24T03:00:39.975Z,12.23
2019-02-24T03:05:49.515Z,12.33
2019-02-24T03:10:54.975Z,13.73
2019-02-24T03:16:00.435Z,12.70
2019-02-24T03:21:06.263Z,11.13
2019-02-24T03:26:12.010Z,12.33
2019-02-24T03:31:17.457Z,11.97
2019-02-24T03:36:22.907Z,12.47
2019-02-24T03:41:28.691Z,12.60
2019-02-24T03:46:34.464Z,11.37
2019-02-24T03:51:40.088Z,11.60
2019-02-24T03:56:45.875Z,12.47
2019-02-24T04:01:52.022Z,12.10
2019-02-24T04:06:57.478Z,11.73
2019-02-24T04:12:02.933Z,11.93
2019-02-24T04:17:08.383Z,10.67
2019-02-24T04:22:13.824Z,11.00
2019-02-24T04:27:19.272Z,11.20
2019-02-24T04:32:25.088Z,11.27
2019-02-24T04:37:30.526Z,11.17
2019-02-24T04:42:35.967Z,11.77
2019-02-24T04:47:41.413Z,11.30
2019-02-24T04:52:46.874Z,11.57
2019-02-24T04:57:52.333Z,10.87
2019-02-24T05:02:57.854Z,11.53
2019-02-24T05:08:03.505Z,11.57
2019-02-24T05:13:09.370Z,11.27
2019-02-24T05:18:14.821Z,11.37
2019-02-24T05:23:20.272Z,10.70
2019-02-24T05:28:25.719Z,10.03
2019-02-24T05:33:31.198Z,11.10
2019-02-24T05:38:36.657Z,9.90
2019-02-24T05:43:42.097Z,9.43
2019-02-24T05:48:47.905Z,10.63
2019-02-24T05:53:53.381Z,10.03
2019-02-24T05:58:59.202Z,10.67
2019-02-24T06:04:05.023Z,9.63
2019-02-24T06:09:10.442Z,11.33
2019-02-24T06:14:15.893Z,9.47
2019-02-24T06:19:21.341Z,9.43
2019-02-24T06:24:27.083Z,9.13
2019-02-24T06:29:32.874Z,9.67
2019-02-24T06:34:38.334Z,9.73
2019-02-24T06:39:43.792Z,9.10
2019-02-24T06:44:49.938Z,9.57
2019-02-24T06:49:55.423Z,9.70
2019-02-24T06:55:00.863Z,10.43
2019-02-24T07:00:13.793Z,9.20
2019-02-24T07:05:12.922Z,10.13
2019-02-24T07:10:18.371Z,10.40
2019-02-24T07:15:23.843Z,11.30
2019-02-24T07:20:29.302Z,10.60
2019-02-24T07:25:34.732Z,10.73
2019-02-24T07:30:40.154Z,11.27
2019-02-24T07:35:45.679Z,10.80
2019-02-24T07:40:51.443Z,11.23
2019-02-24T07:45:56.929Z,10.80
2019-02-24T07:51:02.407Z,11.20
2019-02-24T07:56:07.853Z,10.97
2019-02-24T08:01:13.310Z,10.30
2019-02-24T08:06:18.779Z,11.53
2019-02-24T08:11:24.241Z,12.20
2019-02-24T08:16:29.666Z,10.63
2019-02-24T08:21:35.104Z,11.37
2019-02-24T08:26:40.562Z,10.90
2019-02-24T08:31:45.997Z,11.07
2019-02-24T08:36:51.454Z,11.07
2019-02-24T08:41:56.914Z,11.33
2019-02-24T08:47:02.745Z,11.07
2019-02-24T08:52:08.206Z,11.60
2019-02-24T08:57:14.152Z,11.47
2019-02-24T09:02:19.613Z,10.93
2019-02-24T09:07:25.070Z,10.33
2019-02-24T09:12:30.524Z,10.77
2019-02-24T09:17:36.024Z,10.93
2019-02-24T09:22:41.838Z,10.97
2019-02-24T09:27:47.310Z,10.60
2019-02-24T09:32:53.098Z,11.17
2019-02-24T09:37:58.629Z,10.23
2019-02-24T09:43:04.495Z,11.37
2019-02-24T09:48:10.542Z,11.53
2019-02-24T09:53:16.041Z,10.70
2019-02-24T09:58:21.480Z,10.57
2019-02-24T10:03:26.922Z,11.00
2019-02-24T10:08:32.368Z,10.63
2019-02-24T10:13:37.898Z,10.90
2019-02-24T10:18:43.334Z,11.57
2019-02-24T10:23:48.807Z,10.27
2019-02-24T10:28:54.268Z,10.03
2019-02-24T10:34:00.126Z,9.97
2019-02-24T10:39:06.235Z,10.87
2019-02-24T10:44:12.375Z,10.97
2019-02-24T10:49:18.187Z,11.13
2019-02-24T10:54:23.623Z,10.23
2019-02-24T10:59:29.500Z,11.70
2019-02-24T11:04:34.953Z,10.43
2019-02-24T11:09:40.379Z,10.83
2019-02-24T11:14:45.806Z,9.97
2019-02-24T11:19:51.263Z,10.80
2019-02-24T11:24:56.764Z,10.37
2019-02-24T11:30:05.622Z,10.27
2019-02-24T11:35:11.452Z,10.30
2019-02-24T11:40:17.274Z,10.77
2019-02-24T11:45:22.724Z,9.90
2019-02-24T11:50:28.386Z,9.83
2019-02-24T11:55:33.851Z,9.87
2019-02-24T12:00:39.655Z,9.87
2019-02-24T12:05:45.168Z,8.57
2019-02-24T12:10:51.032Z,9.90
2019-02-24T12:15:56.588Z,9.37
2019-02-24T12:21:02.809Z,9.87
2019-02-24T12:26:08.275Z,9.00
2019-02-24T12:31:13.705Z,8.27
2019-02-24T12:36:19.167Z,10.10
2019-02-24T12:41:24.606Z,8.10
2019-02-24T12:46:30.066Z,8.50
2019-02-24T12:51:35.854Z,8.73
2019-02-24T12:56:41.299Z,8.90
2019-02-24T13:01:46.734Z,9.70
2019-02-24T13:06:52.530Z,8.47
2019-02-24T13:11:58.395Z,8.03
2019-02-24T13:17:03.850Z,8.47
2019-02-24T13:22:09.315Z,9.73
2019-02-24T13:27:14.762Z,10.13
2019-02-24T13:32:21.253Z,10.23
2019-02-24T13:37:26.698Z,10.33
2019-02-24T13:42:32.495Z,9.67
2019-02-24T13:47:38.639Z,9.20
2019-02-24T13:52:44.095Z,9.43
2019-02-24T13:57:50.274Z,8.70
2019-02-24T14:02:55.749Z,8.60
2019-02-24T14:08:01.218Z,8.23
2019-02-24T14:13:07.009Z,9.27
2019-02-24T14:18:12.512Z,7.73
2019-02-24T14:23:17.962Z,7.60
2019-02-24T14:28:24.091Z,6.70
2019-02-24T14:33:29.544Z,7.87
2019-02-24T14:38:35.319Z,7.73
2019-02-24T14:43:40.802Z,7.63
2019-02-24T14:48:46.247Z,7.90
2019-02-24T14:53:52.106Z,7.57
2019-02-24T14:58:57.558Z,6.77
2019-02-24T15:04:03.001Z,6.60
2019-02-24T15:09:08.804Z,8.17
2019-02-24T15:14:14.262Z,8.20
2019-02-24T15:19:19.697Z,7.60
2019-02-24T15:24:25.157Z,6.87
2019-02-24T15:29:30.598Z,7.67
2019-02-24T15:34:36.047Z,7.77
2019-02-24T15:39:41.535Z,7.63
2019-02-24T15:44:46.990Z,7.90
2019-02-24T15:49:52.435Z,7.90
2019-02-24T15:54:58.580Z,8.20
2019-02-24T16:00:04.181Z,9.53
2019-02-24T16:05:10.048Z,7.43
2019-02-24T16:10:16.854Z,7.67
2019-02-24T16:15:22.324Z,6.43
2019-02-24T16:20:28.211Z,6.80
2019-02-24T16:25:33.672Z,7.13
2019-02-24T16:30:39.798Z,7.10
2019-02-24T16:35:45.571Z,7.50
2019-02-24T16:40:51.365Z,6.90
2019-02-24T16:45:56.820Z,6.50
2019-02-24T16:51:02.600Z,6.37
2019-02-24T16:56:08.707Z,6.73
2019-02-24T17:01:14.174Z,6.63
2019-02-24T17:06:20.278Z,6.13
2019-02-24T17:11:26.081Z,6.13
2019-02-24T17:16:31.522Z,7.03
2019-02-24T17:21:36.959Z,6.73
2019-02-24T17:26:42.383Z,7.27
2019-02-24T17:31:47.854Z,7.90
2019-02-24T17:36:53.319Z,6.33
2019-02-24T17:41:59.478Z,9.03
2019-02-24T17:47:05.242Z,10.03
2019-02-24T17:52:10.675Z,11.17
2019-02-24T17:57:16.507Z,11.37
2019-02-24T18:02:22.297Z,10.23
2019-02-24T18:07:28.102Z,11.10
2019-02-24T18:12:33.591Z,12.03
2019-02-24T18:17:39.419Z,24.60
2019-02-24T18:22:45.141Z,36.60
2019-02-24T18:27:50.990Z,37.77
2019-02-24T18:32:56.871Z,39.90
2019-02-24T18:38:02.674Z,35.97
2019-02-24T18:43:08.177Z,34.73
2019-02-24T18:48:13.619Z,28.33
2019-02-24T18:53:19.195Z,27.17
2019-02-24T18:58:24.667Z,25.13
2019-02-24T19:03:30.202Z,22.63
2019-02-24T19:08:36.060Z,23.07
2019-02-24T19:13:41.652Z,23.57
2019-02-24T19:18:47.155Z,22.10
2019-02-24T19:23:53.991Z,19.07
2019-02-24T19:29:00.770Z,16.37
2019-02-24T19:34:07.165Z,14.10
2019-02-24T19:39:14.928Z,14.90
2019-02-24T19:44:20.430Z,14.27
2019-02-24T19:49:25.921Z,15.17
2019-02-24T19:54:34.814Z,15.37
2019-02-24T19:59:40.318Z,13.50
2019-02-24T20:04:45.752Z,14.93
2019-02-24T20:09:51.212Z,15.30
2019-02-24T20:14:56.755Z,13.13
2019-02-24T20:20:02.311Z,11.87
2019-02-24T20:25:09.098Z,11.97
2019-02-24T20:30:21.050Z,12.23
2019-02-24T20:35:26.730Z,13.07
2019-02-24T20:40:32.203Z,12.00
2019-02-24T20:45:37.674Z,13.47
2019-02-24T20:50:43.143Z,13.27
2019-02-24T20:55:48.620Z,13.70
2019-02-24T21:00:54.801Z,14.87
2019-02-24T21:06:00.329Z,14.37
2019-02-24T21:11:06.130Z,13.83
2019-02-24T21:16:11.599Z,14.30
2019-02-24T21:21:17.404Z,15.83
2019-02-24T21:26:22.924Z,16.10
2019-02-24T21:31:28.744Z,16.57
2019-02-24T21:36:34.182Z,15.70
2019-02-24T21:41:40.042Z,15.67
2019-02-24T21:46:45.488Z,15.13
2019-02-24T21:51:50.977Z,13.63
2019-02-24T21:56:56.450Z,12.73
2019-02-24T22:02:01.905Z,12.13
2019-02-24T22:07:07.395Z,12.53
2019-02-24T22:12:12.924Z,12.27
2019-02-24T22:17:18.464Z,12.07
2019-02-24T22:22:24.250Z,14.53
2019-02-24T22:27:30.148Z,16.33
2019-02-24T22:32:36.295Z,15.70
2019-02-24T22:37:42.128Z,15.30
2019-02-24T22:42:47.942Z,15.90
2019-02-24T22:47:53.406Z,18.80
2019-02-24T22:52:58.973Z,18.73
2019-02-24T22:58:05.098Z,21.20
2019-02-24T23:03:11.222Z,21.40
2019-02-24T23:08:16.991Z,20.80
2019-02-24T23:13:22.794Z,18.47
2019-02-24T23:18:29.246Z,16.80
2019-02-24T23:23:34.694Z,16.27
2019-02-24T23:28:40.127Z,16.27
2019-02-24T23:33:45.593Z,15.57
2019-02-24T23:38:51.030Z,16.80
2019-02-24T23:43:56.514Z,15.57
2019-02-24T23:49:02.038Z,15.83
2019-02-24T23:54:07.491Z,16.00
2019-02-24T23:59:13.295Z,15.27
